Time;durP1;ratioP1;P1;durP2;ratioP2;P2;SDS_P1;SDS_P2;PMS_P1;PMS_P2;Temp;Humidity;BMP_temperature;BMP_pressure;BME280_temperature;BME280_humidity;BME280_pressure;Samples;Min_cycle;Max_cycle;Signal;HPM_P1;HPM_P2
2020/12/15 00:02:24;;;;;;;33.25;22.25;;;8.60;99.90;;;;;;5044597;28;20037;-76
2020/12/15 00:04:50;;;;;;;35.75;22.33;;;8.60;99.90;;;;;;5049579;28;20033;-77
2020/12/15 00:07:16;;;;;;;36.17;22.27;;;8.60;99.90;;;;;;5052622;28;20037;-76
2020/12/15 00:09:41;;;;;;;38.22;24.00;;;8.60;99.90;;;;;;5049211;28;20080;-76
2020/12/15 00:12:07;;;;;;;41.05;24.70;;;8.60;99.90;;;;;;5034756;28;20029;-76
2020/12/15 00:14:33;;;;;;;35.97;23.80;;;8.60;99.90;;;;;;5051469;28;20037;-76
2020/12/15 00:16:59;;;;;;;37.78;23.33;;;8.60;99.90;;;;;;5053419;28;20112;-76
2020/12/15 00:19:26;;;;;;;38.22;24.45;;;8.60;99.90;;;;;;5051085;28;20519;-76
2020/12/15 00:21:53;;;;;;;43.80;25.75;;;8.60;99.90;;;;;;5053443;28;20044;-75
2020/12/15 00:24:19;;;;;;;35.70;24.23;;;8.60;99.90;;;;;;5033462;28;20036;-75
2020/12/15 00:26:45;;;;;;;41.35;25.08;;;8.60;99.90;;;;;;5052248;28;20041;-75
2020/12/15 00:29:16;;;;;;;40.30;25.08;;;8.50;99.90;;;;;;5034546;28;20342;-75
2020/12/15 00:31:43;;;;;;;36.50;23.73;;;8.60;99.90;;;;;;5052974;28;20367;-75
2020/12/15 00:34:28;;;;;;;41.13;24.25;;;8.60;99.90;;;;;;5035786;28;20079;-75
2020/12/15 00:37:14;;;;;;;33.95;22.92;;;8.60;99.90;;;;;;5036507;28;20099;-75
2020/12/15 00:39:40;;;;;;;33.80;22.95;;;8.60;99.90;;;;;;5052870;28;20064;-75
2020/12/15 00:42:25;;;;;;;34.50;23.48;;;8.60;99.90;;;;;;5034989;28;20128;-76
2020/12/15 00:44:51;;;;;;;34.05;22.40;;;8.60;99.90;;;;;;5051484;28;20459;-75
2020/12/15 00:47:17;;;;;;;34.40;23.95;;;8.60;99.90;;;;;;5032575;28;20112;-74
2020/12/15 00:50:07;;;;;;;37.05;24.15;;;8.70;99.90;;;;;;5023616;28;20383;-75
2020/12/15 00:52:33;;;;;;;37.08;23.20;;;8.50;99.90;;;;;;5050774;28;20026;-76
2020/12/15 00:54:58;;;;;;;34.45;23.75;;;8.50;99.90;;;;;;5056494;28;20037;-75
2020/12/15 00:57:44;;;;;;;33.83;23.70;;;8.50;99.90;;;;;;5035511;28;20045;-75
2020/12/15 01:00:11;;;;;;;33.20;23.23;;;8.60;99.90;;;;;;5051372;28;20037;-74
2020/12/15 01:02:36;;;;;;;34.20;22.00;;;8.50;99.90;;;;;;5044674;28;20112;-75
2020/12/15 01:05:04;;;;;;;34.35;22.63;;;8.50;99.90;;;;;;5051815;28;20116;-75
2020/12/15 01:07:29;;;;;;;33.63;23.08;;;8.50;99.90;;;;;;5049971;28;20033;-75
2020/12/15 01:09:55;;;;;;;34.17;22.40;;;8.50;99.90;;;;;;5052415;28;20047;-76
2020/12/15 01:12:21;;;;;;;34.80;22.27;;;8.50;99.90;;;;;;5050921;28;20120;-76
2020/12/15 01:15:07;;;;;;;31.23;22.15;;;8.50;99.90;;;;;;5036579;28;20560;-76
2020/12/15 01:17:32;;;;;;;34.25;22.65;;;8.50;99.90;;;;;;5033643;28;20041;-75
2020/12/15 01:19:58;;;;;;;35.42;21.52;;;8.50;99.90;;;;;;5049375;28;20390;-76
2020/12/15 01:22:24;;;;;;;31.67;20.48;;;8.60;99.90;;;;;;5033042;28;20043;-75
2020/12/15 01:24:50;;;;;;;30.20;19.80;;;8.60;99.90;;;;;;5050187;28;20029;-75
2020/12/15 01:27:15;;;;;;;26.20;19.83;;;8.60;99.90;;;;;;5033237;28;20075;-76
2020/12/15 01:29:41;;;;;;;28.45;20.60;;;8.60;99.90;;;;;;5032493;28;20041;-75
2020/12/15 01:32:07;;;;;;;28.02;18.85;;;8.60;99.90;;;;;;5033504;28;20036;-76
2020/12/15 01:34:33;;;;;;;28.90;20.13;;;8.60;99.90;;;;;;5033921;28;20041;-76
2020/12/15 01:37:03;;;;;;;29.55;20.15;;;8.50;99.90;;;;;;5050963;28;20136;-78
2020/12/15 01:39:49;;;;;;;26.27;18.58;;;8.50;99.90;;;;;;5029270;28;20376;-77
2020/12/15 01:42:34;;;;;;;24.48;17.08;;;8.50;99.90;;;;;;5034815;28;20132;-76
2020/12/15 01:45:00;;;;;;;26.83;18.35;;;8.50;99.90;;;;;;5034051;28;20108;-77
2020/12/15 01:47:26;;;;;;;26.80;19.30;;;8.60;99.90;;;;;;5051905;28;20504;-76
2020/12/15 01:49:54;;;;;;;26.85;18.52;;;8.60;99.90;;;;;;5050488;28;20040;-77
2020/12/15 01:52:19;;;;;;;24.27;17.88;;;8.60;99.90;;;;;;5050439;28;20036;-76
2020/12/15 01:55:06;;;;;;;28.92;18.20;;;8.60;99.90;;;;;;5048940;28;20041;-76
2020/12/15 01:57:32;;;;;;;26.30;17.00;;;8.60;99.90;;;;;;5032227;28;20037;-76
2020/12/15 01:59:58;;;;;;;25.25;17.27;;;8.60;99.90;;;;;;5049877;28;20475;-75
2020/12/15 02:02:24;;;;;;;26.40;16.40;;;8.60;99.90;;;;;;5050315;28;20091;-75
2020/12/15 02:04:50;;;;;;;22.33;15.63;;;8.50;99.90;;;;;;5049231;28;20095;-74
2020/12/15 02:07:17;;;;;;;;;;;8.60;99.90;;;;;;5052128;28;20300;-76
2020/12/15 02:09:43;;;;;;;23.77;15.65;;;8.50;99.90;;;;;;5047192;28;20039;-76
2020/12/15 02:12:28;;;;;;;22.85;15.75;;;8.50;99.90;;;;;;5028042;28;20121;-77
2020/12/15 02:14:54;;;;;;;21.58;14.73;;;8.50;99.90;;;;;;5032337;28;20128;-76
2020/12/15 02:17:21;;;;;;;18.88;14.25;;;8.50;99.90;;;;;;5051751;28;20132;-76
2020/12/15 02:20:08;;;;;;;20.45;15.15;;;8.50;99.90;;;;;;5034296;28;20037;-76
2020/12/15 02:22:34;;;;;;;20.13;14.73;;;8.50;99.90;;;;;;5032541;28;20033;-77
2020/12/15 02:25:09;;;;;;;20.23;14.07;;;8.50;99.90;;;;;;5050522;28;20053;-76
2020/12/15 02:27:55;;;;;;;22.33;14.65;;;8.40;99.90;;;;;;5036420;28;20474;-76
2020/12/15 02:30:20;;;;;;;19.40;13.98;;;8.40;99.90;;;;;;5032223;28;20044;-76
2020/12/15 02:32:46;;;;;;;19.65;13.48;;;8.40;99.90;;;;;;5052512;28;20040;-76
2020/12/15 02:35:12;;;;;;;19.77;13.30;;;8.40;99.90;;;;;;5031514;28;20040;-75
2020/12/15 02:37:38;;;;;;;17.10;12.63;;;8.40;99.90;;;;;;5050885;28;20056;-75
2020/12/15 02:40:05;;;;;;;;;;;8.30;99.90;;;;;;5050919;28;20501;-75
2020/12/15 02:42:50;;;;;;;16.35;12.23;;;8.30;99.90;;;;;;5017045;28;19917;-76
2020/12/15 02:45:16;;;;;;;23.02;13.10;;;8.30;99.90;;;;;;5050983;28;20041;-75
2020/12/15 02:47:42;;;;;;;18.10;13.35;;;8.30;99.90;;;;;;5050184;28;20086;-76
2020/12/15 02:50:28;;;;;;;17.70;13.38;;;8.30;99.90;;;;;;5035349;28;20049;-76
2020/12/15 02:53:14;;;;;;;22.48;13.60;;;8.20;99.90;;;;;;5036664;28;20037;-76
2020/12/15 02:55:40;;;;;;;20.48;13.55;;;8.30;99.90;;;;;;5028872;28;20045;-76
2020/12/15 02:58:05;;;;;;;20.10;14.10;;;8.20;99.90;;;;;;5050445;28;20068;-76
2020/12/15 03:00:31;;;;;;;20.85;14.50;;;8.30;99.90;;;;;;5041152;28;20154;-76
2020/12/15 03:02:57;;;;;;;21.98;14.10;;;8.20;99.90;;;;;;5051184;28;20037;-75
2020/12/15 03:05:42;;;;;;;20.42;13.15;;;8.20;99.90;;;;;;5031178;28;20084;-76
2020/12/15 03:08:08;;;;;;;18.70;12.40;;;8.20;99.90;;;;;;5033958;28;20052;-76
2020/12/15 03:10:34;;;;;;;17.25;12.32;;;8.20;99.90;;;;;;5054026;28;20446;-76
2020/12/15 03:13:00;;;;;;;20.75;14.05;;;8.20;99.90;;;;;;5018893;28;20083;-76
2020/12/15 03:15:45;;;;;;;17.67;13.13;;;8.20;99.90;;;;;;5024886;28;20480;-75
2020/12/15 03:18:11;;;;;;;17.13;12.82;;;8.10;99.90;;;;;;5052261;28;20117;-75
2020/12/15 03:20:37;;;;;;;17.30;11.25;;;8.10;99.90;;;;;;5027301;28;20032;-75
2020/12/15 03:23:03;;;;;;;16.33;12.70;;;8.10;99.90;;;;;;5054001;28;20041;-75
2020/12/15 03:25:52;;;;;;;19.50;13.00;;;8.10;99.90;;;;;;5053664;28;20060;-75
2020/12/15 03:28:19;;;;;;;20.90;14.50;;;8.10;99.90;;;;;;5042233;28;20032;-75
2020/12/15 03:30:45;;;;;;;19.17;12.85;;;8.10;99.90;;;;;;5052336;28;20040;-75
2020/12/15 03:33:11;;;;;;;17.80;12.60;;;8.10;99.90;;;;;;5035647;28;20033;-75
2020/12/15 03:35:37;;;;;;;19.35;13.02;;;8.10;99.90;;;;;;5052750;28;20037;-75
2020/12/15 03:38:03;;;;;;;18.55;13.60;;;8.10;99.90;;;;;;5035784;28;20068;-75
2020/12/15 03:40:48;;;;;;;18.45;12.90;;;8.10;99.90;;;;;;5038059;28;20103;-75
2020/12/15 03:43:14;;;;;;;18.30;12.48;;;8.10;99.90;;;;;;5052812;28;20037;-75
2020/12/15 03:45:43;;;;;;;17.17;13.02;;;8.10;99.90;;;;;;5052653;28;20398;-75
2020/12/15 03:48:15;;;;;;;16.95;12.57;;;8.10;99.90;;;;;;5052978;28;20037;-76
2020/12/15 03:50:41;;;;;;;22.55;12.70;;;8.10;99.90;;;;;;5050834;28;20044;-76
2020/12/15 03:53:07;;;;;;;18.40;12.85;;;8.10;99.90;;;;;;5052361;28;20033;-76
2020/12/15 03:55:53;;;;;;;17.45;12.98;;;8.10;99.90;;;;;;5027871;28;20139;-76
2020/12/15 03:58:19;;;;;;;17.08;12.50;;;8.20;99.90;;;;;;5052851;28;20136;-76
2020/12/15 04:01:05;;;;;;;19.30;13.90;;;8.10;99.90;;;;;;5038347;28;20087;-76
2020/12/15 04:03:50;;;;;;;19.40;13.88;;;8.10;99.90;;;;;;5035386;28;20062;-76
2020/12/15 04:06:17;;;;;;;16.98;13.68;;;8.10;99.90;;;;;;5052688;28;20127;-75
2020/12/15 04:08:42;;;;;;;18.92;14.82;;;8.10;99.90;;;;;;5033547;28;20051;-75
2020/12/15 04:11:08;;;;;;;21.77;14.50;;;8.10;99.90;;;;;;5052372;28;20107;-74
2020/12/15 04:13:54;;;;;;;19.65;14.10;;;8.10;99.90;;;;;;5037297;28;20063;-76
2020/12/15 04:16:39;;;;;;;24.63;14.43;;;8.10;99.90;;;;;;5037941;28;20076;-77
2020/12/15 04:19:05;;;;;;;23.50;14.95;;;8.10;99.90;;;;;;5019272;28;20065;-76
2020/12/15 04:21:31;;;;;;;21.15;15.52;;;8.10;99.90;;;;;;5034192;28;20403;-76
2020/12/15 04:23:57;;;;;;;19.30;14.95;;;8.10;99.90;;;;;;5053288;28;20506;-75
2020/12/15 04:26:42;;;;;;;20.95;14.77;;;8.10;99.90;;;;;;5027233;28;20496;-77
2020/12/15 04:29:08;;;;;;;22.05;15.57;;;8.10;99.90;;;;;;5052811;28;20037;-76
2020/12/15 04:31:55;;;;;;;18.85;14.75;;;8.10;99.90;;;;;;5023026;28;20430;-76
2020/12/15 04:34:21;;;;;;;21.85;15.23;;;8.10;99.90;;;;;;5051704;28;20433;-75
2020/12/15 04:37:07;;;;;;;24.92;17.35;;;8.20;99.90;;;;;;5023457;28;20056;-76
2020/12/15 04:39:53;;;;;;;23.10;15.15;;;8.10;99.90;;;;;;5017994;28;20310;-77
2020/12/15 04:42:38;;;;;;;25.73;17.75;;;8.20;99.90;;;;;;5036666;28;20053;-76
2020/12/15 04:45:24;;;;;;;22.27;17.00;;;8.10;99.90;;;;;;5037416;28;20045;-77
2020/12/15 04:48:00;;;;;;;21.10;15.85;;;8.20;99.90;;;;;;5051777;28;20383;-75
2020/12/15 04:50:35;;;;;;;24.48;17.80;;;8.20;99.90;;;;;;5051244;28;20044;-75
2020/12/15 04:53:12;;;;;;;23.73;16.77;;;8.20;99.90;;;;;;5051914;28;20049;-74
2020/12/15 04:56:11;;;;;;;20.60;14.77;;;8.20;99.90;;;;;;5036166;28;20044;-75
2020/12/15 04:58:46;;;;;;;22.50;16.02;;;8.20;99.90;;;;;;5051400;28;20049;-74
2020/12/15 05:01:13;;;;;;;23.70;16.13;;;8.20;99.90;;;;;;5051660;28;20100;-75
2020/12/15 05:03:40;;;;;;;23.50;16.23;;;8.20;99.90;;;;;;5050396;28;20108;-75
2020/12/15 05:06:15;;;;;;;25.42;16.83;;;8.20;99.90;;;;;;5050693;28;20041;-75
2020/12/15 05:09:03;;;;;;;21.98;16.65;;;8.20;99.90;;;;;;5033679;28;20077;-76
2020/12/15 05:11:29;;;;;;;22.55;16.55;;;8.20;99.90;;;;;;5050254;28;20423;-75
2020/12/15 05:13:55;;;;;;;24.00;17.33;;;8.20;99.90;;;;;;5051551;28;20094;-75
2020/12/15 05:16:21;;;;;;;;;;;8.30;99.90;;;;;;5034305;28;20087;-75
2020/12/15 05:18:46;;;;;;;20.98;15.77;;;8.20;99.90;;;;;;5050436;28;20385;-75
2020/12/15 05:21:32;;;;;;;25.35;17.13;;;8.20;99.90;;;;;;5036395;28;20041;-76
2020/12/15 05:23:58;;;;;;;24.90;16.92;;;8.10;99.90;;;;;;5033087;28;20375;-75
2020/12/15 05:26:25;;;;;;;26.83;17.60;;;8.10;99.90;;;;;;5032916;28;20037;-75
2020/12/15 05:29:07;;;;;;;27.08;17.10;;;8.10;99.90;;;;;;5050014;28;20099;-76
2020/12/15 05:31:38;;;;;;;24.70;17.48;;;8.10;99.90;;;;;;5051580;28;20140;-74
2020/12/15 05:34:06;;;;;;;27.42;19.45;;;8.10;99.90;;;;;;5051436;28;20098;-75
2020/12/15 05:36:32;;;;;;;29.75;19.08;;;8.10;99.90;;;;;;5045746;28;20046;-74
2020/12/15 05:39:02;;;;;;;;;;;8.10;99.90;;;;;;5050225;28;20120;-75
2020/12/15 05:41:58;;;;;;;28.70;19.17;;;8.10;99.90;;;;;;5044077;28;19917;-75
2020/12/15 05:44:44;;;;;;;26.80;18.13;;;8.10;99.90;;;;;;5034213;28;20080;-75
2020/12/15 05:47:10;;;;;;;;;;;8.10;99.90;;;;;;5050585;28;20045;-75
2020/12/15 05:49:40;;;;;;;31.15;19.40;;;8.10;99.90;;;;;;5051885;28;19921;-75
2020/12/15 05:52:09;;;;;;;29.45;18.70;;;7.80;99.90;;;;;;5050901;28;20094;-76
2020/12/15 05:55:06;;;;;;;26.30;19.15;;;8.10;99.90;;;;;;5031077;28;20048;-76
2020/12/15 05:57:53;;;;;;;29.05;19.15;;;8.10;99.90;;;;;;5019029;28;20072;-74
2020/12/15 06:00:39;;;;;;;28.38;19.27;;;8.10;99.90;;;;;;5036729;28;20081;-74
2020/12/15 06:03:06;;;;;;;28.33;19.52;;;8.10;99.90;;;;;;5025165;28;20061;-74
2020/12/15 06:05:34;;;;;;;30.45;20.20;;;8.10;99.90;;;;;;5045613;28;20041;-74
2020/12/15 06:08:02;;;;;;;30.05;20.60;;;8.10;99.90;;;;;;5047862;28;20077;-75
2020/12/15 06:10:29;;;;;;;28.15;19.55;;;8.10;99.90;;;;;;5044808;28;20041;-75
2020/12/15 06:12:57;;;;;;;28.92;20.38;;;8.10;99.90;;;;;;5048054;28;20040;-75
2020/12/15 06:15:43;;;;;;;32.63;21.00;;;8.10;99.90;;;;;;5016184;28;20045;-75
2020/12/15 06:18:11;;;;;;;28.80;19.05;;;8.20;99.90;;;;;;5054390;28;20424;-75
2020/12/15 06:20:37;;;;;;;30.38;20.30;;;8.20;99.90;;;;;;5046004;28;20037;-75
2020/12/15 06:23:07;;;;;;;32.03;20.40;;;8.20;99.90;;;;;;5040486;28;20033;-76
2020/12/15 06:25:35;;;;;;;30.23;19.65;;;8.20;99.90;;;;;;5040338;28;20121;-75
2020/12/15 06:28:05;;;;;;;27.45;19.25;;;8.20;99.90;;;;;;5020594;28;20049;-75
2020/12/15 06:30:32;;;;;;;30.42;19.63;;;8.20;99.90;;;;;;5043352;28;20040;-74
2020/12/15 06:33:03;;;;;;;28.67;18.42;;;8.20;99.90;;;;;;5034947;28;20048;-75
2020/12/15 06:35:29;;;;;;;25.13;19.05;;;8.30;99.90;;;;;;5038760;28;20393;-74
2020/12/15 06:38:19;;;;;;;29.17;19.48;;;8.30;99.90;;;;;;5019234;28;20057;-74
2020/12/15 06:40:47;;;;;;;26.90;19.55;;;8.30;99.90;;;;;;5041700;28;20036;-75
2020/12/15 06:43:33;;;;;;;29.05;19.40;;;8.30;99.90;;;;;;5036317;28;20070;-74
2020/12/15 06:46:09;;;;;;;27.50;19.20;;;8.30;99.90;;;;;;5037952;28;20120;-74
2020/12/15 06:48:35;;;;;;;28.00;19.03;;;8.30;99.90;;;;;;5025031;28;20040;-75
2020/12/15 06:51:01;;;;;;;27.67;18.40;;;8.30;99.90;;;;;;5043357;28;20765;-75
2020/12/15 06:53:27;;;;;;;32.42;19.23;;;8.30;99.90;;;;;;5045518;28;20067;-75
2020/12/15 06:56:15;;;;;;;30.85;20.17;;;8.30;99.90;;;;;;5024060;28;20049;-75
2020/12/15 06:59:03;;;;;;;33.72;20.75;;;7.80;99.90;;;;;;5013305;28;20044;-76
2020/12/15 07:01:30;;;;;;;29.77;19.63;;;8.30;99.90;;;;;;5040076;28;20497;-76
2020/12/15 07:03:58;;;;;;;31.85;19.73;;;8.30;99.90;;;;;;5039141;28;20037;-76
2020/12/15 07:06:25;;;;;;;31.83;20.23;;;8.30;99.90;;;;;;5039693;28;20072;-76
2020/12/15 07:09:04;;;;;;;32.70;20.17;;;8.40;99.90;;;;;;5032149;28;20056;-76
2020/12/15 07:11:30;;;;;;;31.30;19.77;;;8.40;99.90;;;;;;5031687;28;20033;-76
2020/12/15 07:13:58;;;;;;;35.45;21.27;;;8.40;99.90;;;;;;5044591;28;20037;-76
2020/12/15 07:16:44;;;;;;;38.85;20.27;;;8.40;99.90;;;;;;5030538;28;20060;-76
2020/12/15 07:19:11;;;;;;;34.00;20.73;;;8.40;99.90;;;;;;5026835;28;20517;-76
2020/12/15 07:21:37;;;;;;;33.03;20.77;;;8.50;99.90;;;;;;5047956;28;20086;-76
2020/12/15 07:24:03;;;;;;;32.60;20.52;;;8.50;99.90;;;;;;5024149;28;20053;-76
2020/12/15 07:26:29;;;;;;;31.42;19.42;;;8.50;99.90;;;;;;5028253;28;20056;-75
2020/12/15 07:29:18;;;;;;;32.87;20.63;;;8.50;99.90;;;;;;5029536;28;20574;-74
2020/12/15 07:31:44;;;;;;;34.00;20.08;;;8.50;99.90;;;;;;5037519;28;20359;-75
2020/12/15 07:34:30;;;;;;;37.70;19.83;;;8.50;99.90;;;;;;5021846;28;20470;-75
2020/12/15 07:36:55;;;;;;;33.75;21.40;;;8.50;99.90;;;;;;5040051;28;20053;-74
2020/12/15 07:39:21;;;;;;;33.42;20.60;;;8.50;99.90;;;;;;5040936;28;20037;-74
2020/12/15 07:42:01;;;;;;;33.88;20.35;;;8.50;99.90;;;;;;5029073;28;20044;-75
2020/12/15 07:44:27;;;;;;;31.63;20.80;;;8.50;99.90;;;;;;5038668;28;20103;-74
2020/12/15 07:46:53;;;;;;;35.63;21.98;;;8.50;99.90;;;;;;5045419;28;20052;-74
2020/12/15 07:49:20;;;;;;;33.17;20.85;;;8.50;99.90;;;;;;5031025;28;20122;-74
2020/12/15 07:51:45;;;;;;;38.28;23.10;;;8.50;99.90;;;;;;5041792;28;20037;-74
2020/12/15 07:54:11;;;;;;;33.65;20.70;;;8.50;99.90;;;;;;5035869;28;20052;-74
2020/12/15 07:56:37;;;;;;;38.22;22.50;;;8.50;99.90;;;;;;5026019;28;20045;-74
2020/12/15 07:59:04;;;;;;;36.00;21.00;;;8.50;99.90;;;;;;5037052;28;20036;-75
2020/12/15 08:01:50;;;;;;;37.67;23.45;;;8.50;99.90;;;;;;5028546;28;20053;-75
2020/12/15 08:04:38;;;;;;;33.50;21.95;;;8.50;99.90;;;;;;5026286;28;20051;-75
2020/12/15 08:07:04;;;;;;;39.13;22.55;;;8.50;99.90;;;;;;5037707;28;20234;-74
2020/12/15 08:09:32;;;;;;;37.83;23.85;;;8.50;99.90;;;;;;5041132;28;20115;-74
2020/12/15 08:11:57;;;;;;;39.17;22.83;;;8.60;99.90;;;;;;5041870;28;20160;-75
2020/12/15 08:14:23;;;;;;;37.08;22.73;;;8.60;99.90;;;;;;5028360;28;20562;-74
2020/12/15 08:17:13;;;;;;;40.70;23.42;;;8.60;99.90;;;;;;5035875;28;20446;-75
2020/12/15 08:19:40;;;;;;;38.60;23.20;;;8.60;99.90;;;;;;5042524;28;20136;-75
2020/12/15 08:22:06;;;;;;;41.72;24.52;;;8.60;99.90;;;;;;5048350;28;20414;-75
2020/12/15 08:24:56;;;;;;;40.20;22.45;;;8.60;99.90;;;;;;5024052;28;20072;-74
2020/12/15 08:27:42;;;;;;;39.60;23.50;;;8.60;99.90;;;;;;5024356;28;20044;-75
2020/12/15 08:30:30;;;;;;;38.47;23.63;;;8.60;99.90;;;;;;5023829;28;20047;-75
2020/12/15 08:32:55;;;;;;;41.10;23.67;;;8.70;99.90;;;;;;5039090;28;20052;-77
2020/12/15 08:35:23;;;;;;;33.50;21.80;;;8.70;99.90;;;;;;5038684;28;20053;-77
2020/12/15 08:38:11;;;;;;;34.63;21.98;;;8.70;99.90;;;;;;5012671;28;20104;-79
2020/12/15 08:40:36;;;;;;;38.30;22.67;;;8.70;99.90;;;;;;5028086;28;20052;-78
2020/12/15 08:43:03;;;;;;;37.72;23.88;;;8.70;99.90;;;;;;5012130;28;20453;-78
2020/12/15 08:45:31;;;;;;;35.47;21.88;;;8.70;99.90;;;;;;5039635;28;20036;-76
2020/12/15 08:48:17;;;;;;;;;;;8.80;99.90;;;;;;5024443;28;20037;-76
2020/12/15 08:50:44;;;;;;;37.40;21.63;;;8.70;99.90;;;;;;5040649;28;19971;-76
2020/12/15 08:53:31;;;;;;;34.17;21.80;;;8.80;99.90;;;;;;5032308;28;20169;-76
2020/12/15 08:55:56;;;;;;;34.58;21.55;;;8.70;99.90;;;;;;5018901;28;20096;-79
2020/12/15 08:58:27;;;;;;;41.55;22.55;;;8.80;99.90;;;;;;5028134;28;20088;-77
2020/12/15 09:00:53;;;;;;;34.13;21.35;;;8.80;99.90;;;;;;5046488;28;20466;-76
2020/12/15 09:03:43;;;;;;;30.77;20.17;;;8.80;99.90;;;;;;5029276;28;20644;-78
2020/12/15 09:06:33;;;;;;;38.85;22.63;;;8.80;99.90;;;;;;5032533;28;20508;-76
2020/12/15 09:09:28;;;;;;;32.97;21.35;;;8.90;99.90;;;;;;5021039;28;20118;-76
2020/12/15 09:11:55;;;;;;;34.53;21.42;;;8.90;99.90;;;;;;5041678;28;20045;-76
2020/12/15 09:14:21;;;;;;;31.88;20.13;;;8.80;99.90;;;;;;5034027;28;20037;-78
2020/12/15 09:17:07;;;;;;;28.52;19.73;;;8.90;99.90;;;;;;5032260;28;20076;-76
2020/12/15 09:19:53;;;;;;;33.28;21.00;;;8.90;99.90;;;;;;5012308;28;20506;-77
2020/12/15 09:22:18;;;;;;;30.45;19.70;;;8.90;99.90;;;;;;5037298;28;20037;-78
2020/12/15 09:24:45;;;;;;;30.52;20.17;;;8.90;99.90;;;;;;5026547;28;20064;-78
2020/12/15 09:27:33;;;;;;;32.50;19.80;;;8.90;99.90;;;;;;5013757;28;20048;-76
2020/12/15 09:29:59;;;;;;;28.58;18.77;;;8.90;99.90;;;;;;5046683;28;20051;-77
2020/12/15 09:32:33;;;;;;;29.73;20.13;;;8.90;99.90;;;;;;5040706;28;20044;-77
2020/12/15 09:35:00;;;;;;;30.48;19.45;;;9.00;99.90;;;;;;5028481;28;20084;-78
2020/12/15 09:37:25;;;;;;;30.65;18.85;;;9.00;99.90;;;;;;5038352;28;20055;-79
2020/12/15 09:39:51;;;;;;;29.00;19.25;;;8.90;99.90;;;;;;5030733;28;20056;-77
2020/12/15 09:42:19;;;;;;;27.05;18.70;;;9.00;99.90;;;;;;5028800;28;20056;-77
2020/12/15 09:45:06;;;;;;;27.20;17.92;;;9.00;99.90;;;;;;5018057;28;20076;-77
2020/12/15 09:47:32;;;;;;;29.10;19.45;;;8.90;99.90;;;;;;5027648;28;20386;-78
2020/12/15 09:49:58;;;;;;;28.20;18.15;;;9.00;99.90;;;;;;5028110;28;20032;-76
2020/12/15 09:52:44;;;;;;;25.60;16.60;;;9.00;99.90;;;;;;5018889;28;20320;-76
2020/12/15 09:55:10;;;;;;;28.92;17.52;;;9.00;99.90;;;;;;5027797;28;20120;-75
2020/12/15 09:57:36;;;;;;;27.23;18.90;;;9.00;99.90;;;;;;5045792;28;20053;-77
2020/12/15 10:00:22;;;;;;;30.95;17.90;;;9.00;99.90;;;;;;5031294;28;20482;-77
2020/12/15 10:02:48;;;;;;;27.52;17.58;;;9.00;99.90;;;;;;5018683;28;20135;-76
2020/12/15 10:05:13;;;;;;;28.20;17.73;;;9.00;99.90;;;;;;5033873;28;20049;-78
2020/12/15 10:07:39;;;;;;;26.98;18.40;;;9.00;99.90;;;;;;5035429;28;20051;-76
2020/12/15 10:10:06;;;;;;;29.98;17.95;;;9.00;99.90;;;;;;5037125;28;20328;-78
2020/12/15 10:12:52;;;;;;;29.15;18.45;;;9.00;99.90;;;;;;5031724;28;20478;-77
2020/12/15 10:15:18;;;;;;;25.92;17.33;;;9.00;99.90;;;;;;5045218;28;20036;-78
2020/12/15 10:17:43;;;;;;;29.60;17.50;;;9.00;99.90;;;;;;5052392;28;20478;-76
2020/12/15 10:20:29;;;;;;;26.73;17.15;;;9.10;99.90;;;;;;5031636;28;20052;-77
2020/12/15 10:22:55;;;;;;;25.40;16.17;;;9.00;99.90;;;;;;5049981;28;20095;-76
2020/12/15 10:25:41;;;;;;;25.20;16.10;;;9.00;99.90;;;;;;5025149;28;20053;-78
2020/12/15 10:28:09;;;;;;;;;;;9.00;99.90;;;;;;5044613;28;20482;-75
2020/12/15 10:30:35;;;;;;;27.70;18.05;;;9.00;99.90;;;;;;5043848;28;19924;-77
2020/12/15 10:33:01;;;;;;;25.30;17.90;;;9.00;99.90;;;;;;5022940;28;20311;-76
2020/12/15 10:35:48;;;;;;;29.20;18.60;;;9.00;99.90;;;;;;5034705;28;20458;-76
2020/12/15 10:38:14;;;;;;;30.88;20.13;;;9.10;99.90;;;;;;5048959;28;20387;-76
2020/12/15 10:40:40;;;;;;;29.15;18.20;;;9.00;99.90;;;;;;5050410;28;20043;-78
2020/12/15 10:43:06;;;;;;;32.92;19.50;;;9.10;99.90;;;;;;5050035;28;20055;-78
2020/12/15 10:45:52;;;;;;;27.67;18.63;;;9.00;99.90;;;;;;5031533;28;20047;-77
2020/12/15 10:48:18;;;;;;;30.05;19.92;;;9.00;99.90;;;;;;5029829;28;20037;-78
2020/12/15 10:51:04;;;;;;;32.88;20.83;;;9.00;99.90;;;;;;5023222;28;20077;-78
2020/12/15 10:53:30;;;;;;;34.83;23.52;;;9.00;99.90;;;;;;5049473;28;20135;-76
2020/12/15 10:55:55;;;;;;;34.97;23.05;;;9.00;99.90;;;;;;5046458;28;20045;-77
2020/12/15 10:58:21;;;;;;;31.67;21.20;;;9.00;99.90;;;;;;5043129;28;20359;-79
2020/12/15 11:00:49;;;;;;;31.65;21.50;;;9.00;99.90;;;;;;5045273;28;20069;-76
2020/12/15 11:03:14;;;;;;;35.50;21.88;;;9.10;99.90;;;;;;5037151;28;20137;-77
2020/12/15 11:05:40;;;;;;;32.83;21.83;;;9.10;99.90;;;;;;5044904;28;20060;-78
2020/12/15 11:08:26;;;;;;;34.83;20.52;;;9.10;99.90;;;;;;5022287;28;20076;-78
2020/12/15 11:10:53;;;;;;;29.85;20.65;;;9.10;99.90;;;;;;5049148;28;20122;-77
2020/12/15 11:13:19;;;;;;;28.65;19.27;;;9.10;99.90;;;;;;5048448;28;20040;-77
2020/12/15 11:15:45;;;;;;;32.55;20.25;;;9.10;99.90;;;;;;5044895;28;20041;-77
2020/12/15 11:18:11;;;;;;;29.30;19.88;;;9.10;99.90;;;;;;5050147;28;20393;-76
2020/12/15 11:20:36;;;;;;;29.27;20.42;;;9.10;99.90;;;;;;5030351;28;20060;-78
2020/12/15 11:23:02;;;;;;;33.25;19.17;;;9.10;99.90;;;;;;5040096;28;20029;-78
2020/12/15 11:25:49;;;;;;;31.58;20.35;;;9.10;99.90;;;;;;5017360;28;20045;-77
2020/12/15 11:28:16;;;;;;;34.65;20.23;;;9.20;99.90;;;;;;5044959;28;20042;-77
2020/12/15 11:30:42;;;;;;;30.70;18.60;;;9.20;99.90;;;;;;5046948;28;20108;-79
2020/12/15 11:33:08;;;;;;;31.02;21.13;;;9.10;99.90;;;;;;5035354;28;20474;-79
2020/12/15 11:35:34;;;;;;;27.08;18.50;;;9.20;99.90;;;;;;5026927;28;20090;-77
2020/12/15 11:38:03;;;;;;;;;;;9.20;99.90;;;;;;5051606;28;20435;-79
2020/12/15 11:40:49;;;;;;;29.40;18.15;;;9.20;99.90;;;;;;5037262;28;19917;-79
2020/12/15 11:43:35;;;;;;;29.13;18.90;;;9.20;99.90;;;;;;5022266;28;20033;-79
2020/12/15 11:46:01;;;;;;;29.23;19.33;;;9.20;99.90;;;;;;5041019;28;20478;-77
2020/12/15 11:48:47;;;;;;;33.65;20.20;;;9.20;99.90;;;;;;5035513;28;20445;-79
2020/12/15 11:51:18;;;;;;;29.98;19.73;;;9.20;99.90;;;;;;5050360;28;20041;-78
2020/12/15 11:53:44;;;;;;;26.20;17.67;;;9.20;99.90;;;;;;5040321;28;20475;-77
2020/12/15 11:56:09;;;;;;;29.27;18.05;;;9.20;99.90;;;;;;5029079;28;20056;-79
2020/12/15 11:58:35;;;;;;;29.15;19.88;;;9.20;99.90;;;;;;5039017;28;20041;-79
2020/12/15 12:01:01;;;;;;;26.73;18.45;;;9.20;99.90;;;;;;5048527;28;20120;-80
2020/12/15 12:03:27;;;;;;;33.08;18.58;;;9.20;99.90;;;;;;5036689;28;20128;-79
2020/12/15 12:06:13;;;;;;;29.23;18.40;;;9.20;99.90;;;;;;5007228;28;20045;-79
2020/12/15 12:08:39;;;;;;;28.38;18.40;;;9.30;99.90;;;;;;5047573;28;20132;-78
2020/12/15 12:11:27;;;;;;;29.15;17.85;;;9.30;99.90;;;;;;5020449;28;20406;-80
2020/12/15 12:13:53;;;;;;;26.98;18.58;;;9.30;99.90;;;;;;5040239;28;20033;-77
2020/12/15 12:16:19;;;;;;;30.63;18.48;;;9.30;99.90;;;;;;5029843;28;20051;-78
2020/12/15 12:18:44;;;;;;;27.05;19.35;;;9.30;99.90;;;;;;5043902;28;20037;-77
2020/12/15 12:21:10;;;;;;;31.25;19.58;;;9.30;99.90;;;;;;5047659;28;20450;-78
2020/12/15 12:23:56;;;;;;;28.25;19.27;;;9.20;99.90;;;;;;5007902;28;20049;-78
2020/12/15 12:26:22;;;;;;;29.02;19.38;;;9.20;99.90;;;;;;5034474;28;20500;-78
2020/12/15 12:28:47;;;;;;;29.73;19.67;;;9.30;99.90;;;;;;5021020;28;20037;-77
2020/12/15 12:31:33;;;;;;;31.42;18.67;;;9.30;99.90;;;;;;5017543;28;20053;-78
2020/12/15 12:33:59;;;;;;;29.98;18.73;;;9.30;99.90;;;;;;5037839;28;20043;-77
2020/12/15 12:36:29;;;;;;;;;;;9.30;99.90;;;;;;5030937;28;20033;-76
2020/12/15 12:38:56;;;;;;;32.75;19.42;;;9.20;99.90;;;;;;5040372;28;19925;-79
2020/12/15 12:41:22;;;;;;;33.35;21.08;;;9.20;99.90;;;;;;5022811;28;20048;-77
2020/12/15 12:43:48;;;;;;;31.48;21.63;;;9.20;99.90;;;;;;5028058;28;20041;-79
2020/12/15 12:46:16;;;;;;;36.80;20.77;;;9.20;99.90;;;;;;5039550;28;20048;-77
2020/12/15 12:48:42;;;;;;;34.17;21.08;;;9.20;99.90;;;;;;5041381;28;20081;-77
2020/12/15 12:51:08;;;;;;;32.28;21.17;;;9.20;99.90;;;;;;5041717;28;20061;-78
2020/12/15 12:53:34;;;;;;;35.35;21.67;;;9.20;99.90;;;;;;5019881;28;20044;-80
2020/12/15 12:56:02;;;;;;;37.92;22.48;;;9.30;99.90;;;;;;5039998;28;20045;-79
2020/12/15 12:58:28;;;;;;;37.05;21.58;;;9.30;99.90;;;;;;5039978;28;20063;-77
2020/12/15 13:01:14;;;;;;;33.22;20.45;;;9.20;99.90;;;;;;5009423;28;20099;-79
2020/12/15 13:03:41;;;;;;;36.38;22.95;;;9.20;99.90;;;;;;5021793;28;20525;-79
2020/12/15 13:06:12;;;;;;;36.47;22.10;;;9.20;99.90;;;;;;5036417;28;20044;-77